sensor_id;sensor_type;location;lat;lon;timestamp;P1;durP1;ratioP1;P2;durP2;ratioP2
13611;SDS011;6877;51.436;6.774;2022-11-20T00:00:42;33.72;;;18.95;;
13611;SDS011;6877;51.436;6.774;2022-11-20T00:03:09;39.67;;;17.63;;
13611;SDS011;6877;51.436;6.774;2022-11-20T00:05:40;29.13;;;16.27;;
13611;SDS011;6877;51.436;6.774;2022-11-20T00:08:06;29.90;;;17.83;;
13611;SDS011;6877;51.436;6.774;2022-11-20T00:10:35;33.28;;;17.65;;
13611;SDS011;6877;51.436;6.774;2022-11-20T00:13:08;44.97;;;20.38;;
13611;SDS011;6877;51.436;6.774;2022-11-20T00:15:39;39.47;;;20.80;;
13611;SDS011;6877;51.436;6.774;2022-11-20T00:18:11;36.78;;;19.80;;
13611;SDS011;6877;51.436;6.774;2022-11-20T00:20:37;39.83;;;20.90;;
13611;SDS011;6877;51.436;6.774;2022-11-20T00:23:03;38.40;;;20.20;;
13611;SDS011;6877;51.436;6.774;2022-11-20T00:25:35;37.50;;;18.60;;
13611;SDS011;6877;51.436;6.774;2022-11-20T00:28:06;37.22;;;19.92;;
13611;SDS011;6877;51.436;6.774;2022-11-20T00:30:37;38.65;;;20.73;;
13611;SDS011;6877;51.436;6.774;2022-11-20T00:33:09;34.90;;;18.50;;
13611;SDS011;6877;51.436;6.774;2022-11-20T00:35:40;40.50;;;20.50;;
13611;SDS011;6877;51.436;6.774;2022-11-20T00:38:12;36.78;;;21.05;;
13611;SDS011;6877;51.436;6.774;2022-11-20T00:40:43;34.88;;;19.52;;
13611;SDS011;6877;51.436;6.774;2022-11-20T00:43:14;35.58;;;19.10;;
13611;SDS011;6877;51.436;6.774;2022-11-20T00:45:46;34.42;;;17.98;;
13611;SDS011;6877;51.436;6.774;2022-11-20T00:48:17;35.75;;;19.50;;
13611;SDS011;6877;51.436;6.774;2022-11-20T00:50:49;36.05;;;20.30;;
13611;SDS011;6877;51.436;6.774;2022-11-20T00:53:20;32.72;;;18.42;;
13611;SDS011;6877;51.436;6.774;2022-11-20T00:55:53;32.60;;;17.55;;
13611;SDS011;6877;51.436;6.774;2022-11-20T00:58:25;31.05;;;16.90;;
13611;SDS011;6877;51.436;6.774;2022-11-20T01:00:59;37.40;;;19.33;;
13611;SDS011;6877;51.436;6.774;2022-11-20T01:03:39;33.25;;;16.77;;
13611;SDS011;6877;51.436;6.774;2022-11-20T01:06:09;36.05;;;19.30;;
13611;SDS011;6877;51.436;6.774;2022-11-20T01:08:43;36.97;;;19.83;;
13611;SDS011;6877;51.436;6.774;2022-11-20T01:11:16;35.33;;;19.65;;
13611;SDS011;6877;51.436;6.774;2022-11-20T01:13:49;34.30;;;18.98;;
13611;SDS011;6877;51.436;6.774;2022-11-20T01:18:56;45.13;;;21.60;;
13611;SDS011;6877;51.436;6.774;2022-11-20T01:21:30;38.00;;;21.38;;
13611;SDS011;6877;51.436;6.774;2022-11-20T01:24:04;41.25;;;23.33;;
13611;SDS011;6877;51.436;6.774;2022-11-20T01:26:39;44.05;;;22.23;;
13611;SDS011;6877;51.436;6.774;2022-11-20T01:29:06;37.47;;;19.98;;
13611;SDS011;6877;51.436;6.774;2022-11-20T01:31:37;39.40;;;20.88;;
13611;SDS011;6877;51.436;6.774;2022-11-20T01:34:15;39.38;;;21.13;;
13611;SDS011;6877;51.436;6.774;2022-11-20T01:36:48;39.30;;;19.92;;
13611;SDS011;6877;51.436;6.774;2022-11-20T01:39:22;33.20;;;20.35;;
13611;SDS011;6877;51.436;6.774;2022-11-20T01:41:55;37.88;;;20.00;;
13611;SDS011;6877;51.436;6.774;2022-11-20T01:47:14;41.90;;;20.73;;
13611;SDS011;6877;51.436;6.774;2022-11-20T01:49:52;37.47;;;21.98;;
13611;SDS011;6877;51.436;6.774;2022-11-20T01:52:32;47.38;;;24.75;;
13611;SDS011;6877;51.436;6.774;2022-11-20T01:55:11;49.90;;;24.80;;
13611;SDS011;6877;51.436;6.774;2022-11-20T01:57:46;43.05;;;22.25;;
13611;SDS011;6877;51.436;6.774;2022-11-20T02:00:19;40.00;;;21.70;;
13611;SDS011;6877;51.436;6.774;2022-11-20T02:02:57;39.75;;;21.75;;
13611;SDS011;6877;51.436;6.774;2022-11-20T02:05:32;41.55;;;23.02;;
13611;SDS011;6877;51.436;6.774;2022-11-20T02:08:05;40.42;;;24.55;;
13611;SDS011;6877;51.436;6.774;2022-11-20T02:10:37;41.08;;;24.08;;
13611;SDS011;6877;51.436;6.774;2022-11-20T02:13:09;40.00;;;22.75;;
13611;SDS011;6877;51.436;6.774;2022-11-20T02:15:58;38.65;;;22.15;;
13611;SDS011;6877;51.436;6.774;2022-11-20T02:18:30;47.50;;;24.23;;
13611;SDS011;6877;51.436;6.774;2022-11-20T02:21:12;44.63;;;23.20;;
13611;SDS011;6877;51.436;6.774;2022-11-20T02:24:00;43.30;;;24.58;;
13611;SDS011;6877;51.436;6.774;2022-11-20T02:27:15;48.42;;;23.42;;
13611;SDS011;6877;51.436;6.774;2022-11-20T02:37:58;38.45;;;21.52;;
13611;SDS011;6877;51.436;6.774;2022-11-20T02:40:32;37.30;;;21.85;;
13611;SDS011;6877;51.436;6.774;2022-11-20T02:43:03;37.20;;;21.52;;
13611;SDS011;6877;51.436;6.774;2022-11-20T02:45:35;40.70;;;20.80;;
13611;SDS011;6877;51.436;6.774;2022-11-20T02:48:06;44.95;;;22.50;;
13611;SDS011;6877;51.436;6.774;2022-11-20T02:50:38;38.80;;;20.73;;
13611;SDS011;6877;51.436;6.774;2022-11-20T02:53:11;35.50;;;20.45;;
13611;SDS011;6877;51.436;6.774;2022-11-20T02:55:37;44.33;;;22.75;;
13611;SDS011;6877;51.436;6.774;2022-11-20T02:58:03;40.20;;;21.10;;
13611;SDS011;6877;51.436;6.774;2022-11-20T03:00:35;42.33;;;22.77;;
13611;SDS011;6877;51.436;6.774;2022-11-20T03:03:06;39.67;;;21.95;;
13611;SDS011;6877;51.436;6.774;2022-11-20T03:05:38;38.45;;;21.70;;
13611;SDS011;6877;51.436;6.774;2022-11-20T03:08:09;44.88;;;25.30;;
13611;SDS011;6877;51.436;6.774;2022-11-20T03:10:35;37.92;;;21.52;;
13611;SDS011;6877;51.436;6.774;2022-11-20T03:13:07;39.88;;;21.40;;
13611;SDS011;6877;51.436;6.774;2022-11-20T03:15:38;40.80;;;23.42;;
13611;SDS011;6877;51.436;6.774;2022-11-20T03:18:10;38.75;;;19.40;;
13611;SDS011;6877;51.436;6.774;2022-11-20T03:20:41;39.85;;;22.13;;
13611;SDS011;6877;51.436;6.774;2022-11-20T03:23:12;37.90;;;22.75;;
13611;SDS011;6877;51.436;6.774;2022-11-20T03:25:39;40.63;;;23.08;;
13611;SDS011;6877;51.436;6.774;2022-11-20T03:28:11;40.83;;;23.38;;
13611;SDS011;6877;51.436;6.774;2022-11-20T03:30:42;40.50;;;22.52;;
13611;SDS011;6877;51.436;6.774;2022-11-20T03:33:13;37.30;;;22.33;;
13611;SDS011;6877;51.436;6.774;2022-11-20T03:35:40;42.15;;;21.02;;
13611;SDS011;6877;51.436;6.774;2022-11-20T03:38:11;37.65;;;21.15;;
13611;SDS011;6877;51.436;6.774;2022-11-20T03:40:37;37.38;;;21.23;;
13611;SDS011;6877;51.436;6.774;2022-11-20T03:43:04;41.67;;;22.10;;
13611;SDS011;6877;51.436;6.774;2022-11-20T03:45:35;37.55;;;21.00;;
13611;SDS011;6877;51.436;6.774;2022-11-20T03:48:07;42.78;;;21.52;;
13611;SDS011;6877;51.436;6.774;2022-11-20T03:50:33;37.00;;;22.75;;
13611;SDS011;6877;51.436;6.774;2022-11-20T03:53:04;39.60;;;21.35;;
13611;SDS011;6877;51.436;6.774;2022-11-20T03:55:36;37.85;;;23.88;;
13611;SDS011;6877;51.436;6.774;2022-11-20T03:58:07;43.97;;;22.50;;
13611;SDS011;6877;51.436;6.774;2022-11-20T04:00:40;38.65;;;21.23;;
13611;SDS011;6877;51.436;6.774;2022-11-20T04:03:11;38.45;;;21.92;;
13611;SDS011;6877;51.436;6.774;2022-11-20T04:05:43;42.28;;;22.33;;
13611;SDS011;6877;51.436;6.774;2022-11-20T04:08:14;42.05;;;23.33;;
13611;SDS011;6877;51.436;6.774;2022-11-20T04:10:41;38.58;;;21.38;;
13611;SDS011;6877;51.436;6.774;2022-11-20T04:13:12;35.85;;;19.83;;
13611;SDS011;6877;51.436;6.774;2022-11-20T04:15:39;36.92;;;21.65;;
13611;SDS011;6877;51.436;6.774;2022-11-20T04:18:10;35.10;;;20.02;;
13611;SDS011;6877;51.436;6.774;2022-11-20T04:20:41;37.45;;;20.02;;
13611;SDS011;6877;51.436;6.774;2022-11-20T04:23:13;39.78;;;20.05;;
13611;SDS011;6877;51.436;6.774;2022-11-20T04:25:39;41.55;;;19.23;;
13611;SDS011;6877;51.436;6.774;2022-11-20T04:28:10;35.30;;;18.40;;
13611;SDS011;6877;51.436;6.774;2022-11-20T04:30:42;30.55;;;17.98;;
13611;SDS011;6877;51.436;6.774;2022-11-20T04:33:09;29.95;;;17.38;;
13611;SDS011;6877;51.436;6.774;2022-11-20T04:35:40;37.95;;;20.55;;
13611;SDS011;6877;51.436;6.774;2022-11-20T04:38:12;35.03;;;18.52;;
13611;SDS011;6877;51.436;6.774;2022-11-20T04:40:38;32.22;;;19.23;;
13611;SDS011;6877;51.436;6.774;2022-11-20T04:43:10;32.08;;;18.80;;
13611;SDS011;6877;51.436;6.774;2022-11-20T04:45:41;32.20;;;18.65;;
13611;SDS011;6877;51.436;6.774;2022-11-20T04:48:12;33.58;;;19.88;;
13611;SDS011;6877;51.436;6.774;2022-11-20T04:50:44;40.80;;;21.23;;
13611;SDS011;6877;51.436;6.774;2022-11-20T04:53:15;35.28;;;19.42;;
13611;SDS011;6877;51.436;6.774;2022-11-20T04:55:47;32.17;;;18.02;;
13611;SDS011;6877;51.436;6.774;2022-11-20T04:58:14;34.13;;;20.88;;
13611;SDS011;6877;51.436;6.774;2022-11-20T05:00:46;33.03;;;18.52;;
13611;SDS011;6877;51.436;6.774;2022-11-20T05:03:17;36.55;;;20.85;;
13611;SDS011;6877;51.436;6.774;2022-11-20T05:05:48;39.10;;;19.50;;
13611;SDS011;6877;51.436;6.774;2022-11-20T05:08:20;33.60;;;18.67;;
13611;SDS011;6877;51.436;6.774;2022-11-20T05:10:51;26.42;;;15.43;;
13611;SDS011;6877;51.436;6.774;2022-11-20T05:13:17;32.15;;;18.48;;
13611;SDS011;6877;51.436;6.774;2022-11-20T05:15:44;32.08;;;17.83;;
13611;SDS011;6877;51.436;6.774;2022-11-20T05:18:10;32.17;;;19.05;;
13611;SDS011;6877;51.436;6.774;2022-11-20T05:20:37;29.88;;;18.02;;
13611;SDS011;6877;51.436;6.774;2022-11-20T05:23:03;38.85;;;23.30;;
13611;SDS011;6877;51.436;6.774;2022-11-20T05:25:34;33.97;;;20.50;;
13611;SDS011;6877;51.436;6.774;2022-11-20T05:28:01;29.33;;;16.25;;
13611;SDS011;6877;51.436;6.774;2022-11-20T05:30:32;39.50;;;21.23;;
13611;SDS011;6877;51.436;6.774;2022-11-20T05:33:03;40.30;;;22.60;;
13611;SDS011;6877;51.436;6.774;2022-11-20T05:35:35;45.45;;;26.30;;
13611;SDS011;6877;51.436;6.774;2022-11-20T05:38:06;49.03;;;25.45;;
13611;SDS011;6877;51.436;6.774;2022-11-20T05:40:33;45.47;;;26.42;;
13611;SDS011;6877;51.436;6.774;2022-11-20T05:43:00;50.28;;;26.85;;
13611;SDS011;6877;51.436;6.774;2022-11-20T05:45:32;45.38;;;25.75;;
13611;SDS011;6877;51.436;6.774;2022-11-20T05:47:59;40.72;;;25.13;;
13611;SDS011;6877;51.436;6.774;2022-11-20T05:50:29;42.33;;;23.08;;
13611;SDS011;6877;51.436;6.774;2022-11-20T05:52:57;45.22;;;27.42;;
13611;SDS011;6877;51.436;6.774;2022-11-20T05:55:30;43.72;;;26.20;;
13611;SDS011;6877;51.436;6.774;2022-11-20T05:58:01;41.80;;;23.65;;
13611;SDS011;6877;51.436;6.774;2022-11-20T06:00:33;41.10;;;23.02;;
13611;SDS011;6877;51.436;6.774;2022-11-20T06:03:04;43.17;;;23.25;;
13611;SDS011;6877;51.436;6.774;2022-11-20T06:05:35;40.85;;;23.27;;
13611;SDS011;6877;51.436;6.774;2022-11-20T06:08:07;39.10;;;22.88;;
13611;SDS011;6877;51.436;6.774;2022-11-20T06:10:33;41.88;;;24.73;;
13611;SDS011;6877;51.436;6.774;2022-11-20T06:13:04;39.05;;;21.27;;
13611;SDS011;6877;51.436;6.774;2022-11-20T06:15:36;37.13;;;20.90;;
13611;SDS011;6877;51.436;6.774;2022-11-20T06:18:07;36.13;;;19.88;;
13611;SDS011;6877;51.436;6.774;2022-11-20T06:20:33;36.80;;;19.60;;
13611;SDS011;6877;51.436;6.774;2022-11-20T06:23:00;43.00;;;22.73;;
13611;SDS011;6877;51.436;6.774;2022-11-20T06:25:26;39.53;;;22.77;;
13611;SDS011;6877;51.436;6.774;2022-11-20T06:27:57;51.75;;;27.80;;
13611;SDS011;6877;51.436;6.774;2022-11-20T06:30:29;54.30;;;31.38;;
13611;SDS011;6877;51.436;6.774;2022-11-20T06:33:00;50.92;;;27.25;;
13611;SDS011;6877;51.436;6.774;2022-11-20T06:35:27;45.35;;;25.00;;
13611;SDS011;6877;51.436;6.774;2022-11-20T06:37:59;40.97;;;25.27;;
13611;SDS011;6877;51.436;6.774;2022-11-20T06:40:30;40.35;;;25.83;;
13611;SDS011;6877;51.436;6.774;2022-11-20T06:42:56;31.98;;;20.60;;
13611;SDS011;6877;51.436;6.774;2022-11-20T06:45:28;43.60;;;24.77;;
13611;SDS011;6877;51.436;6.774;2022-11-20T06:47:59;38.70;;;20.80;;
13611;SDS011;6877;51.436;6.774;2022-11-20T06:50:25;41.35;;;23.58;;
13611;SDS011;6877;51.436;6.774;2022-11-20T06:52:59;48.13;;;25.77;;
13611;SDS011;6877;51.436;6.774;2022-11-20T06:55:32;52.03;;;27.15;;
13611;SDS011;6877;51.436;6.774;2022-11-20T06:58:03;47.88;;;25.00;;
13611;SDS011;6877;51.436;6.774;2022-11-20T07:00:35;57.00;;;27.90;;
13611;SDS011;6877;51.436;6.774;2022-11-20T07:03:04;50.30;;;29.27;;
13611;SDS011;6877;51.436;6.774;2022-11-20T07:05:37;49.65;;;25.92;;
13611;SDS011;6877;51.436;6.774;2022-11-20T07:08:09;42.55;;;26.02;;
13611;SDS011;6877;51.436;6.774;2022-11-20T07:10:35;49.85;;;24.45;;
13611;SDS011;6877;51.436;6.774;2022-11-20T07:13:07;40.80;;;24.77;;
13611;SDS011;6877;51.436;6.774;2022-11-20T07:15:38;43.40;;;24.45;;
13611;SDS011;6877;51.436;6.774;2022-11-20T07:18:10;50.95;;;26.88;;
13611;SDS011;6877;51.436;6.774;2022-11-20T07:20:42;43.85;;;25.60;;
13611;SDS011;6877;51.436;6.774;2022-11-20T07:23:13;44.85;;;25.50;;
13611;SDS011;6877;51.436;6.774;2022-11-20T07:25:40;45.53;;;27.70;;
13611;SDS011;6877;51.436;6.774;2022-11-20T07:28:11;46.17;;;26.40;;
13611;SDS011;6877;51.436;6.774;2022-11-20T07:30:37;48.15;;;27.83;;
13611;SDS011;6877;51.436;6.774;2022-11-20T07:33:09;48.42;;;28.15;;
13611;SDS011;6877;51.436;6.774;2022-11-20T07:35:40;45.83;;;24.73;;
13611;SDS011;6877;51.436;6.774;2022-11-20T07:38:06;43.40;;;25.17;;
13611;SDS011;6877;51.436;6.774;2022-11-20T07:40:39;40.17;;;23.48;;
13611;SDS011;6877;51.436;6.774;2022-11-20T07:43:10;44.17;;;27.27;;
13611;SDS011;6877;51.436;6.774;2022-11-20T07:45:37;41.83;;;26.65;;
13611;SDS011;6877;51.436;6.774;2022-11-20T07:48:04;48.50;;;27.67;;
13611;SDS011;6877;51.436;6.774;2022-11-20T07:50:35;51.65;;;26.60;;
13611;SDS011;6877;51.436;6.774;2022-11-20T07:53:07;45.88;;;26.13;;
13611;SDS011;6877;51.436;6.774;2022-11-20T07:55:33;44.58;;;26.00;;
13611;SDS011;6877;51.436;6.774;2022-11-20T07:58:01;42.38;;;24.77;;
13611;SDS011;6877;51.436;6.774;2022-11-20T08:00:32;36.80;;;22.17;;
13611;SDS011;6877;51.436;6.774;2022-11-20T08:03:04;39.28;;;21.90;;
13611;SDS011;6877;51.436;6.774;2022-11-20T08:05:35;41.63;;;21.95;;
13611;SDS011;6877;51.436;6.774;2022-11-20T08:08:08;39.15;;;22.35;;
13611;SDS011;6877;51.436;6.774;2022-11-20T08:10:39;39.75;;;23.23;;
13611;SDS011;6877;51.436;6.774;2022-11-20T08:13:11;48.60;;;28.45;;
13611;SDS011;6877;51.436;6.774;2022-11-20T08:16:01;43.72;;;26.17;;
13611;SDS011;6877;51.436;6.774;2022-11-20T08:18:32;39.13;;;23.40;;
13611;SDS011;6877;51.436;6.774;2022-11-20T08:21:03;36.38;;;21.80;;
13611;SDS011;6877;51.436;6.774;2022-11-20T08:23:30;39.88;;;22.75;;
13611;SDS011;6877;51.436;6.774;2022-11-20T08:26:02;39.00;;;22.55;;
13611;SDS011;6877;51.436;6.774;2022-11-20T08:28:33;42.80;;;23.95;;
13611;SDS011;6877;51.436;6.774;2022-11-20T08:31:04;38.10;;;23.00;;
13611;SDS011;6877;51.436;6.774;2022-11-20T08:33:36;39.65;;;22.17;;
13611;SDS011;6877;51.436;6.774;2022-11-20T08:36:08;38.10;;;21.77;;
13611;SDS011;6877;51.436;6.774;2022-11-20T08:38:39;47.70;;;26.92;;
13611;SDS011;6877;51.436;6.774;2022-11-20T08:41:11;34.90;;;23.08;;
13611;SDS011;6877;51.436;6.774;2022-11-20T08:44:02;40.58;;;23.25;;
13611;SDS011;6877;51.436;6.774;2022-11-20T08:46:32;39.45;;;21.80;;
13611;SDS011;6877;51.436;6.774;2022-11-20T08:49:01;40.60;;;20.80;;
13611;SDS011;6877;51.436;6.774;2022-11-20T08:51:28;36.72;;;21.13;;
13611;SDS011;6877;51.436;6.774;2022-11-20T08:53:59;43.80;;;21.85;;
13611;SDS011;6877;51.436;6.774;2022-11-20T08:56:31;35.85;;;20.40;;
13611;SDS011;6877;51.436;6.774;2022-11-20T08:59:03;39.17;;;21.75;;
13611;SDS011;6877;51.436;6.774;2022-11-20T09:01:29;36.65;;;21.48;;
13611;SDS011;6877;51.436;6.774;2022-11-20T09:04:01;36.47;;;19.58;;
13611;SDS011;6877;51.436;6.774;2022-11-20T09:06:32;37.25;;;21.20;;
13611;SDS011;6877;51.436;6.774;2022-11-20T09:09:03;36.95;;;22.08;;
13611;SDS011;6877;51.436;6.774;2022-11-20T09:11:31;37.80;;;20.83;;
13611;SDS011;6877;51.436;6.774;2022-11-20T09:14:03;31.67;;;19.17;;
13611;SDS011;6877;51.436;6.774;2022-11-20T09:16:35;35.55;;;20.10;;
13611;SDS011;6877;51.436;6.774;2022-11-20T09:19:01;30.88;;;17.30;;
13611;SDS011;6877;51.436;6.774;2022-11-20T09:21:33;26.45;;;15.95;;
13611;SDS011;6877;51.436;6.774;2022-11-20T09:24:04;30.55;;;17.85;;
13611;SDS011;6877;51.436;6.774;2022-11-20T09:26:36;29.15;;;16.10;;
13611;SDS011;6877;51.436;6.774;2022-11-20T09:29:07;30.23;;;18.65;;
13611;SDS011;6877;51.436;6.774;2022-11-20T09:31:39;31.25;;;18.30;;
13611;SDS011;6877;51.436;6.774;2022-11-20T09:34:10;29.77;;;16.30;;
13611;SDS011;6877;51.436;6.774;2022-11-20T09:36:42;35.17;;;21.40;;
13611;SDS011;6877;51.436;6.774;2022-11-20T09:39:08;34.55;;;19.10;;
13611;SDS011;6877;51.436;6.774;2022-11-20T09:47:12;29.90;;;17.90;;
13611;SDS011;6877;51.436;6.774;2022-11-20T09:52:54;27.00;;;15.45;;
13611;SDS011;6877;51.436;6.774;2022-11-20T09:55:24;25.77;;;16.05;;
13611;SDS011;6877;51.436;6.774;2022-11-20T09:57:56;28.27;;;14.77;;
13611;SDS011;6877;51.436;6.774;2022-11-20T10:00:30;24.13;;;15.05;;
13611;SDS011;6877;51.436;6.774;2022-11-20T10:03:03;24.85;;;15.18;;
13611;SDS011;6877;51.436;6.774;2022-11-20T10:05:45;26.60;;;16.55;;
13611;SDS011;6877;51.436;6.774;2022-11-20T10:08:22;29.85;;;17.35;;
13611;SDS011;6877;51.436;6.774;2022-11-20T10:27:52;31.88;;;17.52;;
13611;SDS011;6877;51.436;6.774;2022-11-20T10:30:27;28.95;;;17.20;;
13611;SDS011;6877;51.436;6.774;2022-11-20T10:33:03;29.95;;;17.60;;
13611;SDS011;6877;51.436;6.774;2022-11-20T10:35:49;27.35;;;17.30;;
13611;SDS011;6877;51.436;6.774;2022-11-20T10:38:34;34.63;;;18.63;;
13611;SDS011;6877;51.436;6.774;2022-11-20T10:41:14;33.97;;;18.58;;
13611;SDS011;6877;51.436;6.774;2022-11-20T10:44:19;35.20;;;19.83;;
13611;SDS011;6877;51.436;6.774;2022-11-20T10:47:15;28.63;;;17.13;;
13611;SDS011;6877;51.436;6.774;2022-11-20T10:49:45;33.17;;;18.33;;
13611;SDS011;6877;51.436;6.774;2022-11-20T10:52:44;28.25;;;16.70;;
13611;SDS011;6877;51.436;6.774;2022-11-20T11:00:42;28.48;;;15.80;;
13611;SDS011;6877;51.436;6.774;2022-11-20T11:03:23;33.60;;;17.38;;
13611;SDS011;6877;51.436;6.774;2022-11-20T11:06:00;27.52;;;16.88;;
13611;SDS011;6877;51.436;6.774;2022-11-20T11:08:35;30.25;;;17.17;;
13611;SDS011;6877;51.436;6.774;2022-11-20T11:11:20;30.02;;;16.00;;
13611;SDS011;6877;51.436;6.774;2022-11-20T11:13:47;29.08;;;16.52;;
13611;SDS011;6877;51.436;6.774;2022-11-20T11:16:23;28.10;;;16.02;;
13611;SDS011;6877;51.436;6.774;2022-11-20T11:19:11;29.42;;;16.05;;
13611;SDS011;6877;51.436;6.774;2022-11-20T11:22:02;26.65;;;15.02;;
13611;SDS011;6877;51.436;6.774;2022-11-20T11:24:51;34.72;;;16.73;;
13611;SDS011;6877;51.436;6.774;2022-11-20T11:27:23;32.45;;;15.35;;
13611;SDS011;6877;51.436;6.774;2022-11-20T11:30:01;33.28;;;15.45;;
13611;SDS011;6877;51.436;6.774;2022-11-20T11:32:44;28.80;;;15.25;;
13611;SDS011;6877;51.436;6.774;2022-11-20T11:35:21;25.38;;;14.73;;
13611;SDS011;6877;51.436;6.774;2022-11-20T11:38:07;26.35;;;15.10;;
13611;SDS011;6877;51.436;6.774;2022-11-20T11:40:45;28.60;;;15.40;;
13611;SDS011;6877;51.436;6.774;2022-11-20T11:43:22;28.35;;;15.30;;
13611;SDS011;6877;51.436;6.774;2022-11-20T11:48:58;29.00;;;14.45;;
13611;SDS011;6877;51.436;6.774;2022-11-20T11:51:31;26.02;;;15.00;;
13611;SDS011;6877;51.436;6.774;2022-11-20T11:54:23;29.42;;;17.02;;
13611;SDS011;6877;51.436;6.774;2022-11-20T11:56:59;25.95;;;14.90;;
13611;SDS011;6877;51.436;6.774;2022-11-20T11:59:38;29.58;;;14.98;;
13611;SDS011;6877;51.436;6.774;2022-11-20T12:02:26;25.75;;;14.10;;
13611;SDS011;6877;51.436;6.774;2022-11-20T12:05:03;31.50;;;15.55;;
13611;SDS011;6877;51.436;6.774;2022-11-20T12:07:45;30.60;;;16.75;;
13611;SDS011;6877;51.436;6.774;2022-11-20T12:10:20;28.00;;;15.45;;
13611;SDS011;6877;51.436;6.774;2022-11-20T12:13:17;28.23;;;16.23;;
13611;SDS011;6877;51.436;6.774;2022-11-20T12:15:59;29.15;;;15.05;;
13611;SDS011;6877;51.436;6.774;2022-11-20T12:18:32;32.88;;;15.80;;
13611;SDS011;6877;51.436;6.774;2022-11-20T12:27:00;32.20;;;16.13;;
13611;SDS011;6877;51.436;6.774;2022-11-20T12:29:36;25.52;;;14.55;;
13611;SDS011;6877;51.436;6.774;2022-11-20T12:40:51;32.83;;;16.55;;
13611;SDS011;6877;51.436;6.774;2022-11-20T12:43:48;30.85;;;15.18;;
13611;SDS011;6877;51.436;6.774;2022-11-20T12:46:58;34.22;;;19.42;;
13611;SDS011;6877;51.436;6.774;2022-11-20T12:49:47;25.35;;;13.82;;
13611;SDS011;6877;51.436;6.774;2022-11-20T12:58:05;26.00;;;14.35;;
13611;SDS011;6877;51.436;6.774;2022-11-20T13:00:54;31.05;;;15.82;;
13611;SDS011;6877;51.436;6.774;2022-11-20T13:06:55;31.23;;;14.40;;
13611;SDS011;6877;51.436;6.774;2022-11-20T13:09:28;27.23;;;15.25;;
13611;SDS011;6877;51.436;6.774;2022-11-20T13:15:05;27.27;;;14.48;;
13611;SDS011;6877;51.436;6.774;2022-11-20T13:17:55;27.75;;;15.63;;
13611;SDS011;6877;51.436;6.774;2022-11-20T13:20:30;30.13;;;16.38;;
13611;SDS011;6877;51.436;6.774;2022-11-20T13:22:59;33.47;;;16.35;;
13611;SDS011;6877;51.436;6.774;2022-11-20T13:25:31;31.08;;;15.10;;
13611;SDS011;6877;51.436;6.774;2022-11-20T13:30:48;30.35;;;15.80;;
13611;SDS011;6877;51.436;6.774;2022-11-20T13:33:27;34.13;;;17.73;;
13611;SDS011;6877;51.436;6.774;2022-11-20T13:35:58;35.08;;;17.95;;
13611;SDS011;6877;51.436;6.774;2022-11-20T13:38:40;30.33;;;15.57;;
13611;SDS011;6877;51.436;6.774;2022-11-20T13:44:09;32.88;;;17.08;;
13611;SDS011;6877;51.436;6.774;2022-11-20T13:46:43;34.72;;;17.98;;
13611;SDS011;6877;51.436;6.774;2022-11-20T13:49:17;37.00;;;17.30;;
13611;SDS011;6877;51.436;6.774;2022-11-20T13:51:57;35.83;;;18.88;;
13611;SDS011;6877;51.436;6.774;2022-11-20T13:54:54;33.75;;;17.75;;
13611;SDS011;6877;51.436;6.774;2022-11-20T13:57:35;35.08;;;17.58;;
13611;SDS011;6877;51.436;6.774;2022-11-20T14:00:21;35.40;;;18.85;;
13611;SDS011;6877;51.436;6.774;2022-11-20T14:05:46;38.53;;;18.55;;
13611;SDS011;6877;51.436;6.774;2022-11-20T14:11:21;30.80;;;16.75;;
13611;SDS011;6877;51.436;6.774;2022-11-20T14:17:08;38.88;;;17.60;;
13611;SDS011;6877;51.436;6.774;2022-11-20T14:19:49;33.97;;;16.77;;
13611;SDS011;6877;51.436;6.774;2022-11-20T14:22:23;35.80;;;18.77;;
13611;SDS011;6877;51.436;6.774;2022-11-20T14:25:39;40.42;;;17.55;;
13611;SDS011;6877;51.436;6.774;2022-11-20T14:27:58;39.58;;;18.48;;
13611;SDS011;6877;51.436;6.774;2022-11-20T14:30:42;45.08;;;22.20;;
13611;SDS011;6877;51.436;6.774;2022-11-20T14:33:15;38.42;;;21.42;;
13611;SDS011;6877;51.436;6.774;2022-11-20T14:35:48;43.83;;;21.73;;
13611;SDS011;6877;51.436;6.774;2022-11-20T14:38:24;40.85;;;21.35;;
13611;SDS011;6877;51.436;6.774;2022-11-20T14:41:16;41.88;;;20.85;;
13611;SDS011;6877;51.436;6.774;2022-11-20T14:43:52;41.28;;;21.75;;
13611;SDS011;6877;51.436;6.774;2022-11-20T14:46:22;36.05;;;19.85;;
13611;SDS011;6877;51.436;6.774;2022-11-20T14:48:55;41.22;;;21.80;;
13611;SDS011;6877;51.436;6.774;2022-11-20T14:54:08;39.70;;;20.40;;
13611;SDS011;6877;51.436;6.774;2022-11-20T14:56:40;40.78;;;20.33;;
13611;SDS011;6877;51.436;6.774;2022-11-20T14:59:08;42.33;;;21.75;;
13611;SDS011;6877;51.436;6.774;2022-11-20T15:01:42;39.22;;;20.95;;
13611;SDS011;6877;51.436;6.774;2022-11-20T15:04:26;40.35;;;21.98;;
13611;SDS011;6877;51.436;6.774;2022-11-20T15:06:59;40.13;;;21.20;;
13611;SDS011;6877;51.436;6.774;2022-11-20T15:09:30;40.45;;;21.30;;
13611;SDS011;6877;51.436;6.774;2022-11-20T15:12:02;48.38;;;21.92;;
13611;SDS011;6877;51.436;6.774;2022-11-20T15:14:30;46.35;;;21.77;;
13611;SDS011;6877;51.436;6.774;2022-11-20T15:17:03;45.75;;;23.08;;
13611;SDS011;6877;51.436;6.774;2022-11-20T15:19:35;43.33;;;22.83;;
13611;SDS011;6877;51.436;6.774;2022-11-20T15:22:09;46.63;;;23.23;;
13611;SDS011;6877;51.436;6.774;2022-11-20T15:24:49;45.15;;;21.92;;
13611;SDS011;6877;51.436;6.774;2022-11-20T15:27:21;46.28;;;23.30;;
13611;SDS011;6877;51.436;6.774;2022-11-20T15:29:52;46.78;;;23.38;;
13611;SDS011;6877;51.436;6.774;2022-11-20T15:32:24;48.30;;;22.38;;
13611;SDS011;6877;51.436;6.774;2022-11-20T15:34:55;50.45;;;23.77;;
13611;SDS011;6877;51.436;6.774;2022-11-20T15:37:22;44.38;;;24.38;;
13611;SDS011;6877;51.436;6.774;2022-11-20T15:39:53;42.88;;;23.10;;
13611;SDS011;6877;51.436;6.774;2022-11-20T15:42:26;42.20;;;22.33;;
13611;SDS011;6877;51.436;6.774;2022-11-20T15:44:52;47.67;;;23.25;;
13611;SDS011;6877;51.436;6.774;2022-11-20T15:47:28;43.05;;;23.40;;
13611;SDS011;6877;51.436;6.774;2022-11-20T15:49:57;43.72;;;24.50;;
13611;SDS011;6877;51.436;6.774;2022-11-20T15:52:23;42.97;;;21.25;;
13611;SDS011;6877;51.436;6.774;2022-11-20T15:54:54;44.28;;;24.17;;
13611;SDS011;6877;51.436;6.774;2022-11-20T15:57:26;42.72;;;21.25;;
13611;SDS011;6877;51.436;6.774;2022-11-20T15:59:58;37.60;;;19.98;;
13611;SDS011;6877;51.436;6.774;2022-11-20T16:02:24;42.45;;;22.17;;
13611;SDS011;6877;51.436;6.774;2022-11-20T16:04:55;38.92;;;20.48;;
13611;SDS011;6877;51.436;6.774;2022-11-20T16:07:27;45.10;;;21.85;;
13611;SDS011;6877;51.436;6.774;2022-11-20T16:09:58;46.97;;;26.42;;
13611;SDS011;6877;51.436;6.774;2022-11-20T16:12:25;44.17;;;21.27;;
13611;SDS011;6877;51.436;6.774;2022-11-20T16:15:15;52.60;;;23.80;;
13611;SDS011;6877;51.436;6.774;2022-11-20T16:18:06;39.38;;;21.88;;
13611;SDS011;6877;51.436;6.774;2022-11-20T16:20:39;44.45;;;22.02;;
13611;SDS011;6877;51.436;6.774;2022-11-20T16:23:11;48.92;;;25.05;;
13611;SDS011;6877;51.436;6.774;2022-11-20T16:25:43;56.35;;;24.88;;
13611;SDS011;6877;51.436;6.774;2022-11-20T16:28:10;49.78;;;22.35;;
13611;SDS011;6877;51.436;6.774;2022-11-20T16:30:42;46.42;;;23.88;;
13611;SDS011;6877;51.436;6.774;2022-11-20T16:33:14;49.38;;;23.05;;
13611;SDS011;6877;51.436;6.774;2022-11-20T16:35:48;44.33;;;23.02;;
13611;SDS011;6877;51.436;6.774;2022-11-20T16:38:19;50.67;;;25.02;;
13611;SDS011;6877;51.436;6.774;2022-11-20T16:40:50;53.03;;;24.10;;